Time;durP1;ratioP1;P1;durP2;ratioP2;P2;SDS_P1;SDS_P2;PMS_P1;PMS_P2;Temp;Humidity;BMP_temperature;BMP_pressure;BME280_temperature;BME280_humidity;BME280_pressure;Samples;Min_cycle;Max_cycle;Signal;HPM_P1;HPM_P2
2022/08/06 00:02:04;;;;;;;1.60;1.50;;;19.90;78.70;;;;;;4967799;28;20479;-86
2022/08/06 00:04:30;;;;;;;2.70;1.60;;;19.80;78.70;;;;;;4984581;28;20455;-88
2022/08/06 00:06:57;;;;;;;1.80;1.43;;;19.80;78.80;;;;;;4970357;28;20452;-87
2022/08/06 00:09:24;;;;;;;2.10;1.90;;;19.80;79.30;;;;;;4985930;28;20463;-87
2022/08/06 00:11:51;;;;;;;2.47;1.90;;;19.70;79.10;;;;;;4972686;28;20495;-87
2022/08/06 00:14:29;;;;;;;3.93;1.60;;;19.70;79.30;;;;;;4966919;28;20459;-87
2022/08/06 00:16:56;;;;;;;2.40;1.60;;;19.60;79.40;;;;;;4971572;28;20470;-87
2022/08/06 00:19:24;;;;;;;1.77;1.60;;;19.60;79.50;;;;;;4979502;28;20495;-88
2022/08/06 00:21:52;;;;;;;3.10;1.40;;;19.70;79.40;;;;;;4975272;28;20550;-87
2022/08/06 00:24:19;;;;;;;1.57;1.27;;;19.70;79.10;;;;;;4973395;28;20459;-86
2022/08/06 00:26:51;;;;;;;3.70;1.63;;;19.70;79.10;;;;;;4989131;28;20464;-87
2022/08/06 00:29:31;;;;;;;3.47;1.60;;;19.70;78.80;;;;;;4969525;28;20471;-88
2022/08/06 00:32:09;;;;;;;2.23;1.50;;;19.60;79.00;;;;;;4991692;28;20475;-87
2022/08/06 00:34:37;;;;;;;3.40;1.50;;;19.60;78.80;;;;;;4983995;28;20456;-87
2022/08/06 00:37:04;;;;;;;1.20;1.10;;;19.60;78.90;;;;;;4985289;28;20856;-85
2022/08/06 00:39:31;;;;;;;1.47;1.20;;;19.60;79.00;;;;;;4985134;28;20492;-85
2022/08/06 00:41:58;;;;;;;1.67;1.50;;;19.60;79.20;;;;;;4976193;28;21171;-87
2022/08/06 00:44:25;;;;;;;4.03;1.70;;;19.50;78.80;;;;;;4965904;28;20465;-89
2022/08/06 00:46:57;;;;;;;2.33;1.50;;;19.50;78.70;;;;;;4965392;28;20463;-87
2022/08/06 00:49:24;;;;;;;2.30;2.13;;;19.40;78.90;;;;;;4966238;28;20559;-87
2022/08/06 00:52:10;;;;;;;1.80;1.40;;;19.40;79.10;;;;;;4986639;28;20480;-86
2022/08/06 00:54:37;;;;;;;2.87;1.27;;;19.30;79.70;;;;;;4984411;28;20467;-88
2022/08/06 00:57:05;;;;;;;3.37;1.33;;;19.30;79.90;;;;;;4996405;28;20472;-86
2022/08/06 00:59:32;;;;;;;2.80;1.30;;;19.30;80.30;;;;;;4982573;28;20529;-86
2022/08/06 01:02:01;;;;;;;1.33;1.23;;;19.30;80.50;;;;;;4984405;28;20488;-85
2022/08/06 01:04:27;;;;;;;2.53;1.40;;;19.20;80.60;;;;;;5006404;28;20451;-87
2022/08/06 01:06:54;;;;;;;2.03;1.10;;;19.20;80.90;;;;;;4981080;28;20503;-88
2022/08/06 01:09:25;;;;;;;2.47;1.20;;;19.20;80.60;;;;;;4981916;28;20447;-87
2022/08/06 01:11:52;;;;;;;1.63;1.20;;;19.10;80.60;;;;;;5001799;28;20480;-89
2022/08/06 01:14:18;;;;;;;2.60;1.27;;;19.10;81.20;;;;;;4985067;28;20494;-86
2022/08/06 01:17:02;;;;;;;2.43;1.53;;;19.00;81.70;;;;;;4997940;28;20459;-88
2022/08/06 01:20:13;;;;;;;5.30;1.33;;;19.10;81.50;;;;;;4979056;29;20464;-88
2022/08/06 01:23:00;;;;;;;1.47;1.37;;;19.00;81.30;;;;;;4969591;28;20474;-85
2022/08/06 01:25:36;;;;;;;3.80;2.03;;;18.90;81.60;;;;;;4981199;28;20444;-87
2022/08/06 01:28:28;;;;;;;3.07;1.13;;;18.90;82.10;;;;;;4996152;28;20463;-87
2022/08/06 01:31:17;;;;;;;1.30;1.20;;;19.00;82.20;;;;;;4984477;28;20493;-87
2022/08/06 01:33:54;;;;;;;5.00;1.43;;;19.00;82.10;;;;;;4977609;28;20475;-90
2022/08/06 01:36:32;;;;;;;2.90;1.50;;;18.90;82.00;;;;;;4967038;28;20464;-87
2022/08/06 01:39:01;;;;;;;4.23;1.70;;;18.90;82.00;;;;;;4984832;28;20573;-89
2022/08/06 01:41:43;;;;;;;1.60;1.50;;;18.90;82.30;;;;;;4995927;28;20444;-88
2022/08/06 01:44:26;;;;;;;2.07;1.50;;;18.80;82.70;;;;;;4993313;28;20450;-88
2022/08/06 01:47:00;;;;;;;1.77;1.50;;;18.80;82.90;;;;;;4985973;28;20447;-86
2022/08/06 01:49:33;;;;;;;1.93;1.50;;;18.70;82.90;;;;;;4985604;28;20431;-87
2022/08/06 01:52:24;;;;;;;2.17;1.60;;;18.70;83.20;;;;;;4992668;28;20440;-87
2022/08/06 01:54:58;;;;;;;1.60;1.33;;;18.60;83.80;;;;;;4998053;28;20667;-88
2022/08/06 01:57:27;;;;;;;1.60;1.50;;;18.60;84.00;;;;;;4963026;28;20444;-86
2022/08/06 01:59:59;;;;;;;2.10;1.50;;;18.50;84.10;;;;;;4990480;28;20476;-87
2022/08/06 02:02:28;;;;;;;3.10;1.90;;;18.40;84.20;;;;;;4995593;28;21089;-89
2022/08/06 02:04:59;;;;;;;2.10;1.40;;;18.40;84.60;;;;;;4987951;28;20452;-87
2022/08/06 02:07:35;;;;;;;4.10;1.43;;;18.40;84.90;;;;;;4985729;28;20555;-88
2022/08/06 02:10:27;;;;;;;3.30;1.90;;;18.30;84.90;;;;;;4974746;28;20483;-89
2022/08/06 02:12:54;;;;;;;2.10;1.50;;;18.40;85.10;;;;;;4976776;28;20476;-87
2022/08/06 02:15:26;;;;;;;3.47;2.00;;;18.40;85.20;;;;;;4973393;28;20474;-87
2022/08/06 02:18:14;;;;;;;1.90;1.40;;;18.30;85.40;;;;;;4977667;28;20456;-88
2022/08/06 02:20:49;;;;;;;5.73;1.87;;;18.30;85.40;;;;;;4988082;28;20476;-88
2022/08/06 02:23:23;;;;;;;1.80;1.40;;;18.20;85.40;;;;;;4997479;28;20506;-89
2022/08/06 02:25:54;;;;;;;2.47;1.40;;;18.20;86.00;;;;;;4992098;28;20452;-87
2022/08/06 02:28:26;;;;;;;3.10;1.90;;;18.10;86.30;;;;;;4995809;28;20454;-87
2022/08/06 02:30:56;;;;;;;1.87;1.30;;;18.10;86.40;;;;;;5000329;28;20455;-89
2022/08/06 02:33:24;;;;;;;2.13;1.43;;;18.10;86.50;;;;;;4993144;28;20493;-88
2022/08/06 02:36:27;;;;;;;2.93;1.53;;;18.10;86.50;;;;;;4975004;28;20466;-88
2022/08/06 02:39:01;;;;;;;2.13;1.47;;;18.00;86.70;;;;;;4968539;28;20514;-88
2022/08/06 02:41:32;;;;;;;2.93;1.53;;;18.00;87.40;;;;;;4988907;28;20490;-88
2022/08/06 02:44:11;;;;;;;3.10;1.83;;;17.90;87.40;;;;;;4988318;28;20484;-86
2022/08/06 02:46:44;;;;;;;2.30;1.50;;;17.80;87.60;;;;;;4999607;28;20452;-89
2022/08/06 02:49:23;;;;;;;1.70;1.60;;;17.80;87.90;;;;;;4972958;28;20461;-88
2022/08/06 02:51:58;;;;;;;1.30;1.20;;;17.80;89.00;;;;;;4972581;28;21297;-87
2022/08/06 02:54:43;;;;;;;9.80;2.97;;;17.80;88.20;;;;;;4972252;28;20571;-86
2022/08/06 02:57:17;;;;;;;1.60;1.50;;;17.80;88.40;;;;;;5004332;28;20450;-87
2022/08/06 02:59:48;;;;;;;2.83;2.10;;;17.70;88.70;;;;;;4986338;28;20485;-87
2022/08/06 03:02:19;;;;;;;1.77;1.67;;;17.60;89.00;;;;;;4981549;28;20566;-86
2022/08/06 03:04:48;;;;;;;4.17;2.20;;;17.70;89.20;;;;;;5007436;28;20444;-88
2022/08/06 03:07:22;;;;;;;2.10;1.87;;;17.70;89.30;;;;;;4999464;28;20470;-90
2022/08/06 03:09:54;;;;;;;3.80;1.87;;;17.70;89.30;;;;;;5001051;28;20504;-89
2022/08/06 03:12:23;;;;;;;5.07;1.90;;;17.60;89.50;;;;;;4984496;28;20482;-89
2022/08/06 03:14:57;;;;;;;1.77;1.67;;;17.60;89.70;;;;;;5001415;28;20447;-88
2022/08/06 03:17:35;;;;;;;1.83;1.70;;;17.70;89.90;;;;;;5003434;28;20443;-88
2022/08/06 03:20:04;;;;;;;1.77;1.63;;;17.60;89.70;;;;;;4997045;28;20542;-86
2022/08/06 03:22:32;;;;;;;2.90;1.70;;;17.60;89.80;;;;;;4988888;28;20471;-86
2022/08/06 03:25:04;;;;;;;2.70;2.50;;;17.60;90.00;;;;;;4974236;28;20456;-87
2022/08/06 03:27:32;;;;;;;3.83;3.10;;;17.50;90.10;;;;;;4973016;28;20487;-86
2022/08/06 03:30:13;;;;;;;3.83;2.00;;;17.50;90.20;;;;;;4968183;28;20490;-87
2022/08/06 03:33:01;;;;;;;3.27;1.87;;;17.50;90.30;;;;;;4984961;28;20563;-87
2022/08/06 03:35:37;;;;;;;1.60;1.50;;;17.40;90.30;;;;;;4988966;28;20454;-85
2022/08/06 03:38:09;;;;;;;3.67;1.60;;;17.40;90.50;;;;;;4997219;28;20452;-88
2022/08/06 03:40:44;;;;;;;2.00;1.60;;;17.40;90.60;;;;;;4992459;28;20514;-87
2022/08/06 03:43:11;;;;;;;2.37;1.80;;;17.40;90.70;;;;;;4997935;28;20533;-87
2022/08/06 03:45:50;;;;;;;3.13;2.33;;;17.40;90.80;;;;;;4971734;28;20460;-85
2022/08/06 03:48:27;;;;;;;2.80;2.50;;;17.50;90.90;;;;;;4981713;28;20458;-87
2022/08/06 03:51:03;;;;;;;2.50;1.60;;;17.50;91.30;;;;;;4984201;28;20480;-88
2022/08/06 03:53:36;;;;;;;4.07;1.80;;;17.70;90.60;;;;;;4973397;28;20562;-87
2022/08/06 03:56:06;;;;;;;10.47;2.23;;;17.60;90.60;;;;;;4991957;28;20511;-86
2022/08/06 03:58:36;;;;;;;2.73;2.50;;;17.50;90.70;;;;;;4968011;28;20467;-86
2022/08/06 04:01:11;;;;;;;3.67;1.90;;;17.20;91.00;;;;;;4964711;28;20455;-88
2022/08/06 04:03:39;;;;;;;3.23;2.30;;;17.10;91.50;;;;;;4972959;28;20566;-86
2022/08/06 04:06:10;;;;;;;2.97;1.93;;;17.10;91.90;;;;;;4990756;28;20494;-88
2022/08/06 04:08:42;;;;;;;4.93;2.70;;;17.00;92.00;;;;;;4976495;28;20463;-86
2022/08/06 04:11:11;;;;;;;2.23;2.00;;;17.00;92.10;;;;;;4965921;28;20490;-84
2022/08/06 04:13:59;;;;;;;3.40;2.00;;;17.00;92.20;;;;;;4984091;28;20471;-86
2022/08/06 04:16:34;;;;;;;7.57;2.87;;;17.10;92.30;;;;;;4988421;28;20455;-87
2022/08/06 04:19:04;;;;;;;2.50;1.70;;;17.10;92.20;;;;;;4991432;28;20456;-86
2022/08/06 04:21:34;;;;;;;3.03;1.97;;;17.10;92.30;;;;;;4965094;28;20502;-86
2022/08/06 04:24:21;;;;;;;6.10;3.10;;;17.10;92.50;;;;;;4983768;28;20456;-86
2022/08/06 04:26:52;;;;;;;3.53;2.47;;;17.00;92.70;;;;;;4966258;28;20901;-87
2022/08/06 04:29:21;;;;;;;3.10;2.50;;;17.00;92.90;;;;;;4982894;28;20452;-87
2022/08/06 04:31:51;;;;;;;2.63;2.10;;;16.90;93.10;;;;;;4983976;28;20464;-87
2022/08/06 04:34:29;;;;;;;3.43;2.07;;;16.90;93.30;;;;;;4983685;28;20809;-87
2022/08/06 04:36:59;;;;;;;2.80;2.20;;;16.90;93.30;;;;;;4965410;28;20524;-87
2022/08/06 04:39:27;;;;;;;3.47;1.87;;;17.00;93.30;;;;;;4966661;28;20451;-86
2022/08/06 04:42:05;;;;;;;2.67;2.47;;;17.10;93.40;;;;;;4966946;28;20563;-85
2022/08/06 04:44:33;;;;;;;2.77;2.10;;;17.10;93.40;;;;;;4974710;28;20456;-87
2022/08/06 04:47:01;;;;;;;6.80;2.10;;;17.10;93.50;;;;;;4994114;28;20459;-89
2022/08/06 04:49:29;;;;;;;3.20;2.43;;;17.10;93.50;;;;;;4984964;28;20541;-88
2022/08/06 04:52:27;;;;;;;3.60;2.27;;;17.20;93.40;;;;;;4987860;28;20518;-88
2022/08/06 04:55:03;;;;;;;3.13;2.83;;;17.10;93.40;;;;;;4984437;28;20459;-87
2022/08/06 04:57:50;;;;;;;2.97;2.23;;;17.20;93.60;;;;;;4981029;28;20453;-89
2022/08/06 05:00:25;;;;;;;4.10;3.00;;;17.20;93.60;;;;;;4967198;28;20488;-89
2022/08/06 05:03:00;;;;;;;4.20;2.67;;;17.20;93.70;;;;;;4979032;28;20479;-87
2022/08/06 05:05:33;;;;;;;3.00;2.70;;;17.20;93.60;;;;;;4969602;28;20451;-86
2022/08/06 05:08:04;;;;;;;4.30;2.50;;;17.20;93.60;;;;;;4959667;28;20461;-86
2022/08/06 05:10:56;;;;;;;5.00;2.80;;;17.20;93.80;;;;;;4965118;28;21001;-88
2022/08/06 05:13:34;;;;;;;4.00;2.37;;;17.20;93.90;;;;;;4959129;28;20570;-87
2022/08/06 05:16:09;;;;;;;2.60;2.40;;;17.20;93.80;;;;;;4981813;28;20467;-86
2022/08/06 05:18:43;;;;;;;5.83;3.00;;;17.20;93.90;;;;;;4957336;28;20443;-85
2022/08/06 05:21:36;;;;;;;4.33;2.90;;;17.20;94.00;;;;;;4963873;28;20441;-87
2022/08/06 05:24:04;;;;;;;3.73;2.47;;;17.20;94.20;;;;;;4999845;28;20459;-87
2022/08/06 05:26:35;;;;;;;4.87;3.03;;;17.30;94.10;;;;;;4984795;28;20464;-87
2022/08/06 05:29:02;;;;;;;3.70;3.10;;;17.30;94.10;;;;;;4981711;28;20435;-87
2022/08/06 05:31:35;;;;;;;3.20;2.83;;;17.30;94.10;;;;;;4962082;28;20495;-88
2022/08/06 05:34:07;;;;;;;4.57;2.30;;;17.60;94.10;;;;;;4979010;28;20468;-87
2022/08/06 05:36:37;;;;;;;5.67;2.67;;;17.60;93.80;;;;;;4955589;28;20461;-87
2022/08/06 05:39:05;;;;;;;3.10;2.80;;;17.70;93.40;;;;;;4973858;28;20567;-87
2022/08/06 05:41:35;;;;;;;3.10;2.37;;;17.60;93.30;;;;;;4972109;28;20479;-87
2022/08/06 05:44:04;;;;;;;4.33;2.97;;;17.50;93.60;;;;;;4972233;28;20472;-86
2022/08/06 05:46:40;;;;;;;3.93;2.90;;;17.40;93.80;;;;;;4986251;28;20460;-87
2022/08/06 05:49:12;;;;;;;3.23;2.93;;;17.40;94.00;;;;;;4973604;28;20506;-88
2022/08/06 05:52:09;;;;;;;3.50;2.97;;;17.40;94.20;;;;;;4984171;28;20535;-87
2022/08/06 05:54:40;;;;;;;4.73;3.10;;;17.50;94.20;;;;;;4995107;28;20459;-88
2022/08/06 05:57:21;;;;;;;3.77;2.80;;;17.50;94.20;;;;;;4966958;28;20467;-88
2022/08/06 06:00:09;;;;;;;3.60;3.17;;;17.60;94.20;;;;;;4989572;28;20456;-87
2022/08/06 06:02:39;;;;;;;2.73;2.53;;;17.60;94.00;;;;;;4999252;28;20471;-86
2022/08/06 06:05:08;;;;;;;3.30;3.00;;;17.90;93.90;;;;;;4972551;28;20866;-88
2022/08/06 06:07:55;;;;;;;5.30;3.00;;;18.20;92.80;;;;;;4974066;28;20549;-86
2022/08/06 06:10:38;;;;;;;3.60;2.83;;;18.10;93.00;;;;;;4973881;28;20479;-88
2022/08/06 06:13:09;;;;;;;4.40;3.27;;;18.00;93.10;;;;;;4972936;28;20797;-87
2022/08/06 06:15:59;;;;;;;4.03;3.30;;;17.90;93.20;;;;;;4989413;28;20772;-87
2022/08/06 06:18:47;;;;;;;3.73;2.80;;;17.90;93.10;;;;;;4987183;28;20479;-87
2022/08/06 06:21:37;;;;;;;2.83;2.20;;;18.00;93.20;;;;;;4970540;28;20471;-88
2022/08/06 06:24:04;;;;;;;2.93;2.73;;;18.50;92.20;;;;;;4956313;28;20456;-87
2022/08/06 06:26:35;;;;;;;5.03;2.70;;;18.60;91.80;;;;;;4977359;28;20480;-87
2022/08/06 06:29:30;;;;;;;3.27;2.63;;;18.60;91.70;;;;;;4972872;28;20470;-87
2022/08/06 06:32:41;;;;;;;6.10;2.60;;;18.40;91.80;;;;;;4982542;28;20567;-87
2022/08/06 06:35:31;;;;;;;6.70;3.30;;;18.50;92.00;;;;;;4961629;28;21375;-87
2022/08/06 06:38:02;;;;;;;2.90;2.70;;;18.90;91.50;;;;;;4964936;28;20527;-88
2022/08/06 06:40:53;;;;;;;4.00;2.60;;;18.70;91.40;;;;;;4983085;28;20458;-85
2022/08/06 06:43:47;;;;;;;3.70;2.40;;;18.60;91.70;;;;;;4967884;28;20480;-87
2022/08/06 06:46:26;;;;;;;3.83;3.40;;;18.60;91.70;;;;;;4985396;28;20526;-86
2022/08/06 06:49:32;;;;;;;2.90;2.43;;;18.60;91.90;;;;;;4981238;28;20465;-86
2022/08/06 06:52:22;;;;;;;6.67;2.80;;;19.00;91.90;;;;;;4990768;28;21000;-86
2022/08/06 06:55:08;;;;;;;3.10;2.17;;;18.90;91.60;;;;;;4969043;28;20452;-87
2022/08/06 06:58:06;;;;;;;2.63;2.40;;;19.00;91.90;;;;;;4983000;28;20439;-87
2022/08/06 07:00:38;;;;;;;3.40;2.70;;;19.50;91.30;;;;;;4966936;28;20456;-88
2022/08/06 07:03:21;;;;;;;3.60;2.70;;;19.60;90.90;;;;;;4970083;28;21012;-88
2022/08/06 07:05:52;;;;;;;3.17;2.87;;;19.50;90.70;;;;;;4966598;28;20457;-86
2022/08/06 07:08:40;;;;;;;3.90;2.50;;;19.40;91.10;;;;;;4989810;28;20471;-85
2022/08/06 07:11:17;;;;;;;3.80;2.10;;;19.60;91.20;;;;;;4985333;28;20479;-87
2022/08/06 07:13:56;;;;;;;5.27;3.13;;;19.80;90.00;;;;;;4968172;28;20467;-88
2022/08/06 07:16:33;;;;;;;5.37;2.53;;;19.50;90.30;;;;;;4967783;28;20452;-89
2022/08/06 07:19:13;;;;;;;2.80;2.50;;;19.60;90.50;;;;;;4987609;28;20454;-87
2022/08/06 07:21:47;;;;;;;3.10;2.40;;;20.00;89.50;;;;;;4967685;28;20451;-86
2022/08/06 07:24:30;;;;;;;2.70;2.50;;;19.90;88.90;;;;;;4985969;28;21015;-87
2022/08/06 07:27:06;;;;;;;4.50;3.07;;;20.00;88.00;;;;;;4968840;28;20462;-87
2022/08/06 07:29:55;;;;;;;4.73;2.00;;;20.10;88.50;;;;;;4970111;28;20444;-87
2022/08/06 07:32:33;;;;;;;2.20;1.63;;;20.30;86.50;;;;;;4986791;28;20476;-87
2022/08/06 07:35:10;;;;;;;2.80;2.20;;;20.50;86.00;;;;;;4969918;28;20501;-87
2022/08/06 07:38:47;;;;;;;2.97;1.90;;;21.40;82.00;;;;;;4955548;28;20452;-87
2022/08/06 07:41:37;;;;;;;1.57;1.40;;;21.30;79.80;;;;;;4908459;29;20457;-88
2022/08/06 07:44:42;;;;;;;4.20;1.97;;;21.20;79.60;;;;;;4979718;28;20434;-88
2022/08/06 07:47:39;;;;;;;4.80;1.93;;;21.80;78.70;;;;;;4975298;28;20484;-89
2022/08/06 07:50:16;;;;;;;4.40;1.83;;;22.30;75.70;;;;;;4970055;28;20463;-87
2022/08/06 07:52:56;;;;;;;5.13;2.00;;;22.30;75.90;;;;;;4967751;28;20499;-88
2022/08/06 07:55:29;;;;;;;1.30;1.20;;;23.30;73.60;;;;;;4997855;28;20432;-87
2022/08/06 07:58:16;;;;;;;2.17;1.47;;;25.50;64.40;;;;;;4972389;28;20451;-88
2022/08/06 08:00:58;;;;;;;2.07;1.67;;;26.90;58.40;;;;;;4966410;28;20452;-86
2022/08/06 08:06:52;;;;;;;1.80;1.60;;;29.10;52.50;;;;;;4981035;28;20456;-87
2022/08/06 08:09:33;;;;;;;2.43;1.87;;;30.10;50.70;;;;;;4971275;28;20479;-86
2022/08/06 08:12:27;;;;;;;2.93;1.33;;;31.20;47.70;;;;;;4970302;28;20490;-88
2022/08/06 08:15:15;;;;;;;1.30;0.90;;;32.50;45.00;;;;;;4983798;28;20462;-86
2022/08/06 08:17:49;;;;;;;4.27;1.50;;;32.40;42.80;;;;;;4965432;28;20468;-86
2022/08/06 08:20:32;;;;;;;1.70;1.20;;;31.70;42.30;;;;;;4997938;28;20569;-87
2022/08/06 08:23:17;;;;;;;2.30;1.27;;;29.30;45.10;;;;;;4966403;28;20479;-86
2022/08/06 08:26:03;;;;;;;3.47;1.93;;;29.10;46.70;;;;;;4964697;28;20554;-87
2022/08/06 08:28:36;;;;;;;3.23;1.30;;;28.40;45.60;;;;;;4980079;28;20452;-88
2022/08/06 08:31:06;;;;;;;4.13;1.33;;;26.60;49.40;;;;;;4964419;28;20476;-87
2022/08/06 08:33:44;;;;;;;1.60;1.10;;;26.50;50.80;;;;;;4963408;28;21197;-86
2022/08/06 08:36:21;;;;;;;3.10;1.20;;;27.10;50.10;;;;;;4980820;28;20487;-86
2022/08/06 08:39:01;;;;;;;1.50;1.10;;;26.80;50.00;;;;;;4964168;28;20873;-87
2022/08/06 08:41:36;;;;;;;1.60;1.27;;;28.40;48.70;;;;;;4962611;28;20460;-88
2022/08/06 08:44:11;;;;;;;1.47;1.10;;;27.70;48.10;;;;;;4964416;28;20463;-87
2022/08/06 08:46:48;;;;;;;1.37;1.10;;;26.60;50.00;;;;;;4980029;28;20459;-88
2022/08/06 08:49:49;;;;;;;2.13;0.90;;;27.70;48.40;;;;;;4986708;28;20450;-89
2022/08/06 08:52:29;;;;;;;1.60;0.97;;;29.00;46.20;;;;;;4968491;28;20535;-89
2022/08/06 08:55:15;;;;;;;2.40;1.10;;;28.90;45.20;;;;;;4982052;28;20443;-88
2022/08/06 08:58:17;;;;;;;1.90;0.73;;;28.50;45.40;;;;;;4967760;28;20475;-86
2022/08/06 09:01:25;;;;;;;2.33;1.30;;;28.70;44.60;;;;;;4986465;28;20948;-88
2022/08/06 09:04:23;;;;;;;1.23;0.97;;;27.80;44.70;;;;;;4965865;28;20436;-88
2022/08/06 09:07:05;;;;;;;1.20;0.90;;;27.20;46.20;;;;;;4977448;28;20428;-90
2022/08/06 09:10:08;;;;;;;1.50;1.20;;;28.40;44.50;;;;;;4975845;28;20516;-89
2022/08/06 09:12:44;;;;;;;2.30;0.87;;;28.70;44.80;;;;;;4964019;28;20486;-88
2022/08/06 09:15:23;;;;;;;2.13;1.00;;;30.60;41.90;;;;;;4971149;28;20456;-89
2022/08/06 09:18:06;;;;;;;1.13;1.03;;;31.20;39.60;;;;;;5006269;28;20472;-89
2022/08/06 09:20:58;;;;;;;2.83;1.43;;;31.30;39.40;;;;;;4991760;28;20432;-91
2022/08/06 09:24:01;;;;;;;0.80;0.80;;;31.40;38.40;;;;;;4986568;28;20490;-88
2022/08/06 09:27:11;;;;;;;1.70;0.93;;;31.10;38.60;;;;;;4971808;28;20437;-87
2022/08/06 09:30:07;;;;;;;3.23;1.43;;;29.30;40.50;;;;;;4978554;28;20436;-88
2022/08/06 09:33:14;;;;;;;1.00;0.90;;;29.10;41.50;;;;;;4983240;28;20468;-86
2022/08/06 09:36:10;;;;;;;0.80;0.80;;;29.30;41.00;;;;;;4989720;28;20436;-87
2022/08/06 09:38:51;;;;;;;1.13;1.00;;;28.50;41.50;;;;;;4974912;28;20517;-87
2022/08/06 09:41:24;;;;;;;1.83;0.90;;;28.60;42.30;;;;;;5008065;28;20509;-87
2022/08/06 09:44:01;;;;;;;1.07;0.80;;;29.50;40.70;;;;;;4996697;28;20484;-88
2022/08/06 09:46:48;;;;;;;3.27;1.20;;;29.20;40.30;;;;;;4980509;28;20444;-89
2022/08/06 09:49:17;;;;;;;1.87;1.20;;;30.50;38.70;;;;;;4992586;28;20436;-90
2022/08/06 09:52:19;;;;;;;1.13;0.70;;;30.30;39.60;;;;;;4976637;28;20475;-90
2022/08/06 09:54:55;;;;;;;1.63;0.97;;;29.70;39.30;;;;;;4975388;28;20428;-88
2022/08/06 09:57:44;;;;;;;2.43;1.83;;;28.40;40.30;;;;;;4973480;28;20487;-88
2022/08/06 10:00:31;;;;;;;2.53;1.10;;;28.00;41.20;;;;;;4972128;28;20992;-88
2022/08/06 10:03:06;;;;;;;2.30;0.77;;;27.00;43.40;;;;;;4972898;28;20523;-88
2022/08/06 10:06:25;;;;;;;0.93;0.83;;;27.30;42.40;;;;;;4987278;28;20432;-87
2022/08/06 10:09:11;;;;;;;1.40;0.80;;;26.50;44.00;;;;;;4969610;28;20938;-87
2022/08/06 10:11:47;;;;;;;0.80;0.80;;;26.50;44.60;;;;;;4986293;28;20552;-86
2022/08/06 10:14:30;;;;;;;2.97;0.93;;;26.50;44.20;;;;;;4967561;28;20562;-87
2022/08/06 10:17:19;;;;;;;1.47;1.10;;;26.60;43.80;;;;;;4989413;28;20443;-88
2022/08/06 10:20:10;;;;;;;0.80;0.80;;;26.30;43.80;;;;;;4956502;28;20543;-87
2022/08/06 10:22:57;;;;;;;1.73;1.00;;;27.90;42.20;;;;;;4964742;28;20551;-86
2022/08/06 10:25:37;;;;;;;1.00;0.60;;;28.40;40.20;;;;;;4986885;28;20475;-87
2022/08/06 10:28:23;;;;;;;2.60;1.53;;;28.30;39.10;;;;;;4984236;28;20440;-87
2022/08/06 10:30:57;;;;;;;1.10;0.60;;;27.90;39.00;;;;;;4995925;28;20480;-87
2022/08/06 10:33:41;;;;;;;0.70;0.50;;;28.50;38.80;;;;;;4983001;28;21035;-87
2022/08/06 10:36:34;;;;;;;0.80;0.50;;;29.90;36.10;;;;;;4979097;28;20467;-87
2022/08/06 10:39:03;;;;;;;0.80;0.60;;;28.60;36.40;;;;;;4965174;28;20448;-87
2022/08/06 10:41:38;;;;;;;0.50;0.50;;;28.90;36.90;;;;;;4985287;28;20539;-86
2022/08/06 10:44:32;;;;;;;1.07;0.60;;;29.50;37.30;;;;;;4977415;28;20538;-87
2022/08/06 10:47:05;;;;;;;1.13;0.70;;;30.40;35.20;;;;;;4965251;28;20530;-89
2022/08/06 10:49:35;;;;;;;1.50;1.30;;;30.40;35.20;;;;;;4978930;28;20533;-88
2022/08/06 10:52:28;;;;;;;0.80;0.60;;;30.00;35.40;;;;;;4984674;28;20487;-87
2022/08/06 10:58:07;;;;;;;0.93;0.50;;;28.70;36.80;;;;;;4990481;28;20444;-89
2022/08/06 11:00:40;;;;;;;1.90;0.80;;;27.60;38.30;;;;;;4978422;28;20450;-88
2022/08/06 11:03:30;;;;;;;0.80;0.53;;;27.10;39.80;;;;;;4973992;28;20470;-88
2022/08/06 11:06:23;;;;;;;1.43;0.70;;;27.70;38.30;;;;;;4976664;28;20459;-88
2022/08/06 11:09:02;;;;;;;1.00;0.70;;;27.90;37.70;;;;;;4990142;28;20491;-89
2022/08/06 11:12:33;;;;;;;1.53;0.70;;;28.10;38.20;;;;;;4985780;28;20478;-89
2022/08/06 11:15:00;;;;;;;0.50;0.50;;;27.70;38.00;;;;;;4971770;28;20439;-88
2022/08/06 11:17:54;;;;;;;1.30;0.60;;;28.30;37.80;;;;;;4986800;28;20467;-88
2022/08/06 11:20:31;;;;;;;0.73;0.60;;;28.50;37.90;;;;;;4974146;28;20472;-87
2022/08/06 11:23:12;;;;;;;0.90;0.80;;;27.60;39.10;;;;;;4992693;28;20472;-90
2022/08/06 11:25:54;;;;;;;0.90;0.70;;;26.70;39.70;;;;;;4977413;28;20444;-90
2022/08/06 11:28:33;;;;;;;1.43;0.87;;;26.30;41.00;;;;;;4982907;28;20479;-90
2022/08/06 11:31:27;;;;;;;1.23;0.67;;;26.60;40.00;;;;;;4999314;28;20451;-88
2022/08/06 11:34:07;;;;;;;1.13;0.90;;;27.40;39.30;;;;;;4983936;28;20475;-90
2022/08/06 11:36:46;;;;;;;0.80;0.80;;;28.40;37.60;;;;;;4980780;28;20528;-89
2022/08/06 11:39:32;;;;;;;0.70;0.63;;;28.40;37.60;;;;;;4965402;29;20448;-87
2022/08/06 11:42:10;;;;;;;1.73;0.70;;;28.30;37.00;;;;;;4959097;28;20600;-86
2022/08/06 11:45:01;;;;;;;0.50;0.50;;;28.80;36.90;;;;;;4955480;29;20441;-86
2022/08/06 11:47:33;;;;;;;0.70;0.70;;;29.20;36.50;;;;;;4942369;29;20448;-88
2022/08/06 11:50:29;;;;;;;0.73;0.50;;;29.40;36.10;;;;;;4954027;28;20441;-87
2022/08/06 11:53:09;;;;;;;0.83;0.63;;;30.00;37.10;;;;;;4947642;29;20500;-87
2022/08/06 11:56:07;;;;;;;1.57;1.10;;;30.00;35.80;;;;;;4937358;29;20448;-87
2022/08/06 11:58:40;;;;;;;0.80;0.60;;;30.10;35.50;;;;;;4940699;29;20464;-88
2022/08/06 12:01:13;;;;;;;1.03;0.70;;;30.10;34.90;;;;;;4951976;29;20509;-85
2022/08/06 12:03:58;;;;;;;1.03;0.80;;;29.60;35.20;;;;;;4954583;29;21010;-88
2022/08/06 12:06:32;;;;;;;1.23;0.70;;;29.00;35.00;;;;;;4953393;29;20546;-87
2022/08/06 12:09:12;;;;;;;3.00;0.70;;;28.10;36.30;;;;;;4949907;28;20457;-87
2022/08/06 12:11:50;;;;;;;0.70;0.70;;;27.50;37.50;;;;;;4968787;28;20483;-87
2022/08/06 12:14:42;;;;;;;1.50;1.00;;;28.00;37.90;;;;;;4939666;28;20470;-90
2022/08/06 12:17:22;;;;;;;3.27;0.70;;;28.50;37.30;;;;;;4957779;28;20516;-89
2022/08/06 12:20:11;;;;;;;1.00;0.60;;;28.50;35.60;;;;;;4943542;29;20464;-87
2022/08/06 12:22:57;;;;;;;1.20;0.60;;;28.70;36.10;;;;;;4951042;29;20481;-86
2022/08/06 12:25:40;;;;;;;0.90;0.60;;;29.60;34.70;;;;;;4947871;29;20448;-88
2022/08/06 12:28:13;;;;;;;0.90;0.60;;;28.90;34.90;;;;;;4943142;29;20537;-88
2022/08/06 12:30:56;;;;;;;0.60;0.50;;;29.10;35.90;;;;;;4962692;29;20456;-91
2022/08/06 12:33:39;;;;;;;1.33;1.17;;;29.10;36.20;;;;;;4956569;29;20489;-86
2022/08/06 12:36:19;;;;;;;1.27;0.70;;;28.70;36.60;;;;;;4966234;28;20560;-87
2022/08/06 12:39:05;;;;;;;1.43;0.70;;;28.70;37.50;;;;;;4988543;28;20453;-87
2022/08/06 12:41:48;;;;;;;0.60;0.50;;;29.00;36.20;;;;;;4987217;28;20459;-88
2022/08/06 12:44:36;;;;;;;1.17;0.60;;;28.70;35.70;;;;;;4983020;28;20447;-87
2022/08/06 12:47:26;;;;;;;0.83;0.70;;;28.80;35.90;;;;;;4981292;28;20436;-88
2022/08/06 12:50:22;;;;;;;2.33;0.60;;;29.00;35.30;;;;;;4981686;28;20444;-87
2022/08/06 12:53:12;;;;;;;0.50;0.50;;;28.90;36.20;;;;;;4971986;28;20551;-88
2022/08/06 12:55:52;;;;;;;0.50;0.40;;;29.30;36.30;;;;;;4965244;28;20483;-89
2022/08/06 12:58:36;;;;;;;0.80;0.50;;;29.10;36.40;;;;;;4963046;28;20462;-87
2022/08/06 13:01:13;;;;;;;0.70;0.60;;;29.30;34.60;;;;;;4963922;28;20543;-87
2022/08/06 13:04:04;;;;;;;1.00;0.90;;;29.10;34.80;;;;;;4979151;28;20512;-87
2022/08/06 13:06:37;;;;;;;0.83;0.63;;;29.40;34.80;;;;;;4962514;28;20595;-86
2022/08/06 13:09:12;;;;;;;1.93;0.60;;;30.70;33.20;;;;;;4978540;28;21422;-87
2022/08/06 13:11:46;;;;;;;1.40;0.70;;;30.60;33.40;;;;;;4961641;28;20914;-87
2022/08/06 13:14:19;;;;;;;1.50;0.53;;;30.30;33.40;;;;;;4963775;28;20875;-87
2022/08/06 13:16:49;;;;;;;0.50;0.50;;;30.50;33.30;;;;;;4993237;28;20494;-86
2022/08/06 13:19:21;;;;;;;0.80;0.80;;;30.30;32.40;;;;;;4966736;28;20834;-87
2022/08/06 13:21:59;;;;;;;0.70;0.53;;;29.50;32.90;;;;;;4982555;28;20572;-87
2022/08/06 13:24:36;;;;;;;1.90;0.80;;;28.80;33.70;;;;;;4966555;28;20531;-89
2022/08/06 13:27:37;;;;;;;0.90;0.53;;;28.90;34.40;;;;;;4974808;28;20448;-87
2022/08/06 13:30:13;;;;;;;1.10;0.70;;;28.90;34.30;;;;;;4959175;28;20456;-88
2022/08/06 13:33:14;;;;;;;0.63;0.53;;;28.90;35.30;;;;;;4973624;28;20555;-87
2022/08/06 13:35:45;;;;;;;1.23;0.50;;;29.70;33.20;;;;;;4966948;28;20480;-87
2022/08/06 13:38:36;;;;;;;0.50;0.50;;;29.20;34.80;;;;;;4976282;28;20467;-87
2022/08/06 13:41:27;;;;;;;0.90;0.60;;;28.80;35.00;;;;;;4964089;28;20444;-87
2022/08/06 13:43:58;;;;;;;0.80;0.60;;;28.50;35.60;;;;;;4964530;28;20530;-87
2022/08/06 13:46:43;;;;;;;0.70;0.60;;;28.70;34.30;;;;;;4970389;28;20451;-87
2022/08/06 13:49:14;;;;;;;0.90;0.60;;;28.10;35.80;;;;;;4985783;28;20443;-87
2022/08/06 13:51:42;;;;;;;0.60;0.60;;;28.20;35.70;;;;;;4981115;28;20448;-87
2022/08/06 13:54:15;;;;;;;1.10;0.50;;;28.40;35.30;;;;;;4964071;28;20456;-88
2022/08/06 13:56:47;;;;;;;1.37;0.60;;;28.20;34.90;;;;;;4975364;28;20460;-87
2022/08/06 13:59:22;;;;;;;0.87;0.47;;;28.80;34.20;;;;;;4963685;28;20444;-86